sensor_id;sensor_type;location;lat;lon;timestamp;P1;durP1;ratioP1;P2;durP2;ratioP2
57113;SDS011;42994;51.606;9.988;2023-08-24T00:01:12;9.75;;;6.32;;
57113;SDS011;42994;51.606;9.988;2023-08-24T00:03:40;7.25;;;6.20;;
57113;SDS011;42994;51.606;9.988;2023-08-24T00:06:07;8.48;;;5.88;;
57113;SDS011;42994;51.606;9.988;2023-08-24T00:08:34;6.68;;;6.07;;
57113;SDS011;42994;51.606;9.988;2023-08-24T00:11:02;9.18;;;6.53;;
57113;SDS011;42994;51.606;9.988;2023-08-24T00:13:29;6.80;;;6.20;;
57113;SDS011;42994;51.606;9.988;2023-08-24T00:15:57;9.00;;;7.38;;
57113;SDS011;42994;51.606;9.988;2023-08-24T00:18:24;8.27;;;6.88;;
57113;SDS011;42994;51.606;9.988;2023-08-24T00:20:51;8.52;;;6.57;;
57113;SDS011;42994;51.606;9.988;2023-08-24T00:23:17;6.20;;;5.57;;
57113;SDS011;42994;51.606;9.988;2023-08-24T00:25:44;8.05;;;5.65;;
57113;SDS011;42994;51.606;9.988;2023-08-24T00:28:11;8.75;;;6.28;;
57113;SDS011;42994;51.606;9.988;2023-08-24T00:30:37;8.20;;;7.05;;
57113;SDS011;42994;51.606;9.988;2023-08-24T00:33:05;6.85;;;6.13;;
57113;SDS011;42994;51.606;9.988;2023-08-24T00:35:32;6.65;;;6.03;;
57113;SDS011;42994;51.606;9.988;2023-08-24T00:37:58;6.30;;;5.70;;
57113;SDS011;42994;51.606;9.988;2023-08-24T00:40:25;10.88;;;6.72;;
57113;SDS011;42994;51.606;9.988;2023-08-24T00:42:52;8.38;;;7.05;;
57113;SDS011;42994;51.606;9.988;2023-08-24T00:45:18;10.18;;;9.27;;
57113;SDS011;42994;51.606;9.988;2023-08-24T00:47:47;13.30;;;9.27;;
57113;SDS011;42994;51.606;9.988;2023-08-24T00:50:16;14.00;;;8.30;;
57113;SDS011;42994;51.606;9.988;2023-08-24T00:52:44;9.70;;;8.65;;
57113;SDS011;42994;51.606;9.988;2023-08-24T00:55:13;8.90;;;8.02;;
57113;SDS011;42994;51.606;9.988;2023-08-24T00:57:40;10.70;;;7.80;;
57113;SDS011;42994;51.606;9.988;2023-08-24T01:00:08;10.73;;;7.47;;
57113;SDS011;42994;51.606;9.988;2023-08-24T01:02:36;8.02;;;7.32;;
57113;SDS011;42994;51.606;9.988;2023-08-24T01:05:03;8.90;;;6.53;;
57113;SDS011;42994;51.606;9.988;2023-08-24T01:07:32;7.72;;;7.03;;
57113;SDS011;42994;51.606;9.988;2023-08-24T01:10:01;9.93;;;7.03;;
57113;SDS011;42994;51.606;9.988;2023-08-24T01:12:31;6.88;;;6.38;;
57113;SDS011;42994;51.606;9.988;2023-08-24T01:15:16;8.32;;;6.20;;
57113;SDS011;42994;51.606;9.988;2023-08-24T01:17:46;9.65;;;6.63;;
57113;SDS011;42994;51.606;9.988;2023-08-24T01:20:15;6.47;;;5.90;;
57113;SDS011;42994;51.606;9.988;2023-08-24T01:22:46;7.30;;;6.50;;
57113;SDS011;42994;51.606;9.988;2023-08-24T01:25:20;6.88;;;6.28;;
57113;SDS011;42994;51.606;9.988;2023-08-24T01:28:00;7.22;;;6.57;;
57113;SDS011;42994;51.606;9.988;2023-08-24T01:30:29;7.30;;;6.45;;
57113;SDS011;42994;51.606;9.988;2023-08-24T01:32:56;7.43;;;6.57;;
57113;SDS011;42994;51.606;9.988;2023-08-24T01:35:23;7.38;;;6.70;;
57113;SDS011;42994;51.606;9.988;2023-08-24T01:37:50;7.78;;;7.07;;
57113;SDS011;42994;51.606;9.988;2023-08-24T01:40:17;12.00;;;7.10;;
57113;SDS011;42994;51.606;9.988;2023-08-24T01:42:51;12.82;;;7.20;;
57113;SDS011;42994;51.606;9.988;2023-08-24T01:45:22;9.63;;;6.95;;
57113;SDS011;42994;51.606;9.988;2023-08-24T01:47:53;10.70;;;6.32;;
57113;SDS011;42994;51.606;9.988;2023-08-24T01:50:21;7.50;;;6.72;;
57113;SDS011;42994;51.606;9.988;2023-08-24T01:52:48;6.90;;;6.20;;
57113;SDS011;42994;51.606;9.988;2023-08-24T01:55:17;7.07;;;5.65;;
57113;SDS011;42994;51.606;9.988;2023-08-24T01:57:45;7.53;;;6.72;;
57113;SDS011;42994;51.606;9.988;2023-08-24T02:00:12;7.72;;;6.57;;
57113;SDS011;42994;51.606;9.988;2023-08-24T02:05:08;6.18;;;5.78;;
57113;SDS011;42994;51.606;9.988;2023-08-24T02:07:35;6.80;;;6.18;;
57113;SDS011;42994;51.606;9.988;2023-08-24T02:10:02;6.68;;;6.07;;
57113;SDS011;42994;51.606;9.988;2023-08-24T02:12:30;7.50;;;6.80;;
57113;SDS011;42994;51.606;9.988;2023-08-24T02:14:56;8.60;;;7.57;;
57113;SDS011;42994;51.606;9.988;2023-08-24T02:17:23;8.05;;;6.60;;
57113;SDS011;42994;51.606;9.988;2023-08-24T02:19:49;7.97;;;6.93;;
57113;SDS011;42994;51.606;9.988;2023-08-24T02:22:18;8.45;;;7.03;;
57113;SDS011;42994;51.606;9.988;2023-08-24T02:24:44;10.30;;;7.43;;
57113;SDS011;42994;51.606;9.988;2023-08-24T02:27:11;8.80;;;8.00;;
57113;SDS011;42994;51.606;9.988;2023-08-24T02:29:39;8.75;;;7.60;;
57113;SDS011;42994;51.606;9.988;2023-08-24T02:32:05;7.85;;;7.15;;
57113;SDS011;42994;51.606;9.988;2023-08-24T02:34:32;7.35;;;6.75;;
57113;SDS011;42994;51.606;9.988;2023-08-24T02:36:59;8.52;;;7.78;;
57113;SDS011;42994;51.606;9.988;2023-08-24T02:39:27;10.23;;;8.50;;
57113;SDS011;42994;51.606;9.988;2023-08-24T02:41:53;9.05;;;8.20;;
57113;SDS011;42994;51.606;9.988;2023-08-24T02:44:20;8.45;;;7.60;;
57113;SDS011;42994;51.606;9.988;2023-08-24T02:46:47;11.15;;;7.78;;
57113;SDS011;42994;51.606;9.988;2023-08-24T02:49:16;8.90;;;7.68;;
57113;SDS011;42994;51.606;9.988;2023-08-24T02:51:43;7.63;;;7.03;;
57113;SDS011;42994;51.606;9.988;2023-08-24T02:54:10;8.10;;;7.30;;
57113;SDS011;42994;51.606;9.988;2023-08-24T02:56:38;9.73;;;8.77;;
57113;SDS011;42994;51.606;9.988;2023-08-24T02:59:05;12.90;;;7.22;;
57113;SDS011;42994;51.606;9.988;2023-08-24T03:01:32;9.13;;;8.23;;
57113;SDS011;42994;51.606;9.988;2023-08-24T03:03:59;7.97;;;7.28;;
57113;SDS011;42994;51.606;9.988;2023-08-24T03:06:26;9.40;;;7.07;;
57113;SDS011;42994;51.606;9.988;2023-08-24T03:08:53;8.40;;;7.20;;
57113;SDS011;42994;51.606;9.988;2023-08-24T03:11:19;7.03;;;6.45;;
57113;SDS011;42994;51.606;9.988;2023-08-24T03:13:46;7.45;;;6.95;;
57113;SDS011;42994;51.606;9.988;2023-08-24T03:16:13;11.25;;;7.88;;
57113;SDS011;42994;51.606;9.988;2023-08-24T03:18:40;10.00;;;6.93;;
57113;SDS011;42994;51.606;9.988;2023-08-24T03:21:06;8.68;;;7.88;;
57113;SDS011;42994;51.606;9.988;2023-08-24T03:23:33;7.80;;;7.13;;
57113;SDS011;42994;51.606;9.988;2023-08-24T03:26:00;8.27;;;7.47;;
57113;SDS011;42994;51.606;9.988;2023-08-24T03:28:28;8.60;;;7.10;;
57113;SDS011;42994;51.606;9.988;2023-08-24T03:30:56;8.70;;;7.57;;
57113;SDS011;42994;51.606;9.988;2023-08-24T03:33:23;10.93;;;8.07;;
57113;SDS011;42994;51.606;9.988;2023-08-24T03:35:51;9.55;;;7.78;;
57113;SDS011;42994;51.606;9.988;2023-08-24T03:38:19;8.77;;;7.97;;
57113;SDS011;42994;51.606;9.988;2023-08-24T03:40:45;8.75;;;8.05;;
57113;SDS011;42994;51.606;9.988;2023-08-24T03:43:12;11.77;;;8.35;;
57113;SDS011;42994;51.606;9.988;2023-08-24T03:45:39;9.75;;;7.85;;
57113;SDS011;42994;51.606;9.988;2023-08-24T03:48:06;9.15;;;7.78;;
57113;SDS011;42994;51.606;9.988;2023-08-24T03:50:33;8.90;;;8.20;;
57113;SDS011;42994;51.606;9.988;2023-08-24T03:52:59;10.95;;;8.75;;
57113;SDS011;42994;51.606;9.988;2023-08-24T03:55:26;10.48;;;8.90;;
57113;SDS011;42994;51.606;9.988;2023-08-24T03:57:52;9.30;;;8.10;;
57113;SDS011;42994;51.606;9.988;2023-08-24T04:00:20;10.77;;;8.00;;
57113;SDS011;42994;51.606;9.988;2023-08-24T04:02:47;8.52;;;7.65;;
57113;SDS011;42994;51.606;9.988;2023-08-24T04:05:22;9.00;;;8.20;;
57113;SDS011;42994;51.606;9.988;2023-08-24T04:07:50;9.18;;;7.78;;
57113;SDS011;42994;51.606;9.988;2023-08-24T04:10:16;10.93;;;8.13;;
57113;SDS011;42994;51.606;9.988;2023-08-24T04:12:43;9.30;;;7.80;;
57113;SDS011;42994;51.606;9.988;2023-08-24T04:15:10;8.27;;;7.55;;
57113;SDS011;42994;51.606;9.988;2023-08-24T04:17:37;8.60;;;7.70;;
57113;SDS011;42994;51.606;9.988;2023-08-24T04:20:05;8.85;;;8.05;;
57113;SDS011;42994;51.606;9.988;2023-08-24T04:22:34;10.75;;;8.27;;
57113;SDS011;42994;51.606;9.988;2023-08-24T04:25:00;8.45;;;7.60;;
57113;SDS011;42994;51.606;9.988;2023-08-24T04:27:27;9.80;;;7.40;;
57113;SDS011;42994;51.606;9.988;2023-08-24T04:29:54;9.52;;;8.40;;
57113;SDS011;42994;51.606;9.988;2023-08-24T04:32:21;8.27;;;7.57;;
57113;SDS011;42994;51.606;9.988;2023-08-24T04:34:48;10.52;;;7.65;;
57113;SDS011;42994;51.606;9.988;2023-08-24T04:37:15;9.05;;;7.75;;
57113;SDS011;42994;51.606;9.988;2023-08-24T04:39:43;17.15;;;9.95;;
57113;SDS011;42994;51.606;9.988;2023-08-24T04:42:10;11.60;;;7.68;;
57113;SDS011;42994;51.606;9.988;2023-08-24T04:44:36;13.52;;;8.23;;
57113;SDS011;42994;51.606;9.988;2023-08-24T04:47:03;8.65;;;7.85;;
57113;SDS011;42994;51.606;9.988;2023-08-24T04:49:30;8.18;;;7.38;;
57113;SDS011;42994;51.606;9.988;2023-08-24T04:51:57;12.23;;;7.53;;
57113;SDS011;42994;51.606;9.988;2023-08-24T04:54:23;8.90;;;7.97;;
57113;SDS011;42994;51.606;9.988;2023-08-24T04:56:51;8.45;;;7.60;;
57113;SDS011;42994;51.606;9.988;2023-08-24T04:59:18;8.50;;;7.68;;
57113;SDS011;42994;51.606;9.988;2023-08-24T05:01:44;8.23;;;7.43;;
57113;SDS011;42994;51.606;9.988;2023-08-24T05:04:11;9.20;;;7.32;;
57113;SDS011;42994;51.606;9.988;2023-08-24T05:06:38;11.65;;;9.60;;
57113;SDS011;42994;51.606;9.988;2023-08-24T05:09:05;11.88;;;9.93;;
57113;SDS011;42994;51.606;9.988;2023-08-24T05:11:32;22.38;;;10.88;;
57113;SDS011;42994;51.606;9.988;2023-08-24T05:14:00;13.70;;;12.38;;
57113;SDS011;42994;51.606;9.988;2023-08-24T05:16:26;14.93;;;13.48;;
57113;SDS011;42994;51.606;9.988;2023-08-24T05:18:54;14.13;;;8.63;;
57113;SDS011;42994;51.606;9.988;2023-08-24T05:21:20;15.82;;;9.43;;
57113;SDS011;42994;51.606;9.988;2023-08-24T05:23:47;13.07;;;9.77;;
57113;SDS011;42994;51.606;9.988;2023-08-24T05:26:13;15.10;;;9.90;;
57113;SDS011;42994;51.606;9.988;2023-08-24T05:28:47;12.13;;;10.23;;
57113;SDS011;42994;51.606;9.988;2023-08-24T05:31:15;10.80;;;9.82;;
57113;SDS011;42994;51.606;9.988;2023-08-24T05:33:42;12.07;;;10.98;;
57113;SDS011;42994;51.606;9.988;2023-08-24T05:36:08;12.35;;;10.23;;
57113;SDS011;42994;51.606;9.988;2023-08-24T05:38:35;15.00;;;12.75;;
57113;SDS011;42994;51.606;9.988;2023-08-24T05:41:01;23.90;;;14.43;;
57113;SDS011;42994;51.606;9.988;2023-08-24T05:43:28;24.95;;;17.10;;
57113;SDS011;42994;51.606;9.988;2023-08-24T05:45:55;23.42;;;16.65;;
57113;SDS011;42994;51.606;9.988;2023-08-24T05:48:23;23.05;;;15.65;;
57113;SDS011;42994;51.606;9.988;2023-08-24T05:50:50;19.25;;;13.20;;
57113;SDS011;42994;51.606;9.988;2023-08-24T05:53:17;21.45;;;14.80;;
57113;SDS011;42994;51.606;9.988;2023-08-24T05:55:43;18.42;;;15.00;;
57113;SDS011;42994;51.606;9.988;2023-08-24T05:58:10;17.08;;;15.20;;
57113;SDS011;42994;51.606;9.988;2023-08-24T06:00:36;19.27;;;12.95;;
57113;SDS011;42994;51.606;9.988;2023-08-24T06:03:03;17.50;;;13.68;;
57113;SDS011;42994;51.606;9.988;2023-08-24T06:05:31;14.80;;;13.07;;
57113;SDS011;42994;51.606;9.988;2023-08-24T06:07:58;19.30;;;14.98;;
57113;SDS011;42994;51.606;9.988;2023-08-24T06:10:25;15.73;;;13.80;;
57113;SDS011;42994;51.606;9.988;2023-08-24T06:12:52;18.52;;;13.35;;
57113;SDS011;42994;51.606;9.988;2023-08-24T06:15:19;17.60;;;11.98;;
57113;SDS011;42994;51.606;9.988;2023-08-24T06:17:49;14.93;;;11.02;;
57113;SDS011;42994;51.606;9.988;2023-08-24T06:20:16;18.48;;;12.70;;
57113;SDS011;42994;51.606;9.988;2023-08-24T06:22:44;14.43;;;11.38;;
57113;SDS011;42994;51.606;9.988;2023-08-24T06:25:10;16.70;;;11.13;;
57113;SDS011;42994;51.606;9.988;2023-08-24T06:27:37;15.98;;;12.60;;
57113;SDS011;42994;51.606;9.988;2023-08-24T06:30:04;17.50;;;12.63;;
57113;SDS011;42994;51.606;9.988;2023-08-24T06:32:31;20.40;;;13.77;;
57113;SDS011;42994;51.606;9.988;2023-08-24T06:34:58;30.88;;;15.82;;
57113;SDS011;42994;51.606;9.988;2023-08-24T06:37:25;38.25;;;16.98;;
57113;SDS011;42994;51.606;9.988;2023-08-24T06:39:53;30.67;;;17.65;;
57113;SDS011;42994;51.606;9.988;2023-08-24T06:42:20;31.35;;;17.60;;
57113;SDS011;42994;51.606;9.988;2023-08-24T06:44:46;23.35;;;15.60;;
57113;SDS011;42994;51.606;9.988;2023-08-24T06:47:15;34.92;;;15.70;;
57113;SDS011;42994;51.606;9.988;2023-08-24T06:49:41;24.80;;;13.30;;
57113;SDS011;42994;51.606;9.988;2023-08-24T06:52:08;23.02;;;14.30;;
57113;SDS011;42994;51.606;9.988;2023-08-24T06:54:35;26.45;;;16.35;;
57113;SDS011;42994;51.606;9.988;2023-08-24T06:57:03;35.80;;;16.73;;
57113;SDS011;42994;51.606;9.988;2023-08-24T06:59:31;24.40;;;16.73;;
57113;SDS011;42994;51.606;9.988;2023-08-24T07:01:57;30.95;;;17.50;;
57113;SDS011;42994;51.606;9.988;2023-08-24T07:04:24;22.85;;;16.20;;
57113;SDS011;42994;51.606;9.988;2023-08-24T07:06:51;25.42;;;16.75;;
57113;SDS011;42994;51.606;9.988;2023-08-24T07:09:18;25.13;;;16.58;;
57113;SDS011;42994;51.606;9.988;2023-08-24T07:11:46;36.22;;;21.00;;
57113;SDS011;42994;51.606;9.988;2023-08-24T07:14:14;29.02;;;17.08;;
57113;SDS011;42994;51.606;9.988;2023-08-24T07:16:40;28.92;;;18.63;;
57113;SDS011;42994;51.606;9.988;2023-08-24T07:19:07;34.15;;;18.98;;
57113;SDS011;42994;51.606;9.988;2023-08-24T07:21:34;33.92;;;20.13;;
57113;SDS011;42994;51.606;9.988;2023-08-24T07:24:00;32.35;;;19.40;;
57113;SDS011;42994;51.606;9.988;2023-08-24T07:26:27;36.50;;;19.88;;
57113;SDS011;42994;51.606;9.988;2023-08-24T07:28:55;38.08;;;22.70;;
57113;SDS011;42994;51.606;9.988;2023-08-24T07:31:23;33.85;;;20.73;;
57113;SDS011;42994;51.606;9.988;2023-08-24T07:33:50;34.22;;;20.08;;
57113;SDS011;42994;51.606;9.988;2023-08-24T07:36:16;32.42;;;19.52;;
57113;SDS011;42994;51.606;9.988;2023-08-24T07:38:44;30.30;;;19.23;;
57113;SDS011;42994;51.606;9.988;2023-08-24T07:41:11;35.20;;;18.77;;
57113;SDS011;42994;51.606;9.988;2023-08-24T07:43:38;37.53;;;18.55;;
57113;SDS011;42994;51.606;9.988;2023-08-24T07:46:05;40.47;;;17.92;;
57113;SDS011;42994;51.606;9.988;2023-08-24T07:48:33;25.75;;;17.20;;
57113;SDS011;42994;51.606;9.988;2023-08-24T07:50:59;33.25;;;17.52;;
57113;SDS011;42994;51.606;9.988;2023-08-24T07:53:26;25.88;;;16.83;;
57113;SDS011;42994;51.606;9.988;2023-08-24T07:55:53;19.42;;;14.52;;
57113;SDS011;42994;51.606;9.988;2023-08-24T07:58:21;23.38;;;13.73;;
57113;SDS011;42994;51.606;9.988;2023-08-24T08:00:49;15.68;;;13.73;;
57113;SDS011;42994;51.606;9.988;2023-08-24T08:03:15;19.88;;;14.93;;
57113;SDS011;42994;51.606;9.988;2023-08-24T08:05:44;21.02;;;14.25;;
57113;SDS011;42994;51.606;9.988;2023-08-24T08:08:10;25.15;;;13.98;;
57113;SDS011;42994;51.606;9.988;2023-08-24T08:10:37;16.35;;;12.30;;
57113;SDS011;42994;51.606;9.988;2023-08-24T08:13:04;21.35;;;12.43;;
57113;SDS011;42994;51.606;9.988;2023-08-24T08:15:30;19.08;;;10.85;;
57113;SDS011;42994;51.606;9.988;2023-08-24T08:17:57;11.77;;;9.38;;
57113;SDS011;42994;51.606;9.988;2023-08-24T08:20:23;14.93;;;10.50;;
57113;SDS011;42994;51.606;9.988;2023-08-24T08:22:51;17.60;;;10.57;;
57113;SDS011;42994;51.606;9.988;2023-08-24T08:25:18;13.93;;;10.32;;
57113;SDS011;42994;51.606;9.988;2023-08-24T08:27:47;10.07;;;9.02;;
57113;SDS011;42994;51.606;9.988;2023-08-24T08:30:13;13.32;;;9.60;;
57113;SDS011;42994;51.606;9.988;2023-08-24T08:32:40;13.57;;;7.90;;
57113;SDS011;42994;51.606;9.988;2023-08-24T08:35:08;17.90;;;6.88;;
57113;SDS011;42994;51.606;9.988;2023-08-24T08:37:34;11.82;;;6.72;;
57113;SDS011;42994;51.606;9.988;2023-08-24T08:40:03;8.25;;;7.05;;
57113;SDS011;42994;51.606;9.988;2023-08-24T08:42:32;7.95;;;6.38;;
57113;SDS011;42994;51.606;9.988;2023-08-24T08:45:01;7.25;;;6.50;;
57113;SDS011;42994;51.606;9.988;2023-08-24T08:47:30;10.93;;;6.20;;
57113;SDS011;42994;51.606;9.988;2023-08-24T08:49:57;7.85;;;5.93;;
57113;SDS011;42994;51.606;9.988;2023-08-24T08:52:25;10.32;;;6.28;;
57113;SDS011;42994;51.606;9.988;2023-08-24T08:54:52;13.40;;;6.50;;
57113;SDS011;42994;51.606;9.988;2023-08-24T08:57:20;7.63;;;5.60;;
57113;SDS011;42994;51.606;9.988;2023-08-24T08:59:49;9.00;;;5.60;;
57113;SDS011;42994;51.606;9.988;2023-08-24T09:02:17;10.20;;;5.38;;
57113;SDS011;42994;51.606;9.988;2023-08-24T09:04:45;9.13;;;5.43;;
57113;SDS011;42994;51.606;9.988;2023-08-24T09:07:14;9.57;;;5.85;;
57113;SDS011;42994;51.606;9.988;2023-08-24T09:09:41;7.20;;;5.28;;
57113;SDS011;42994;51.606;9.988;2023-08-24T09:12:09;6.40;;;5.13;;
57113;SDS011;42994;51.606;9.988;2023-08-24T09:14:37;6.20;;;5.60;;
57113;SDS011;42994;51.606;9.988;2023-08-24T09:17:05;7.45;;;5.40;;
57113;SDS011;42994;51.606;9.988;2023-08-24T09:19:32;13.45;;;5.38;;
57113;SDS011;42994;51.606;9.988;2023-08-24T09:22:01;10.68;;;5.68;;
57113;SDS011;42994;51.606;9.988;2023-08-24T09:24:31;10.23;;;5.40;;
57113;SDS011;42994;51.606;9.988;2023-08-24T09:26:59;8.67;;;5.37;;
57113;SDS011;42994;51.606;9.988;2023-08-24T09:29:26;8.60;;;4.30;;
57113;SDS011;42994;51.606;9.988;2023-08-24T09:31:55;8.35;;;4.78;;
57113;SDS011;42994;51.606;9.988;2023-08-24T09:34:22;7.10;;;4.63;;
57113;SDS011;42994;51.606;9.988;2023-08-24T09:36:52;11.02;;;4.50;;
57113;SDS011;42994;51.606;9.988;2023-08-24T09:39:19;8.02;;;4.95;;
57113;SDS011;42994;51.606;9.988;2023-08-24T09:41:48;7.85;;;4.43;;
57113;SDS011;42994;51.606;9.988;2023-08-24T09:44:16;8.13;;;4.55;;
57113;SDS011;42994;51.606;9.988;2023-08-24T09:46:43;6.22;;;4.93;;
57113;SDS011;42994;51.606;9.988;2023-08-24T09:49:11;5.88;;;4.25;;
57113;SDS011;42994;51.606;9.988;2023-08-24T09:51:39;4.93;;;4.43;;
57113;SDS011;42994;51.606;9.988;2023-08-24T09:54:07;8.75;;;5.47;;
57113;SDS011;42994;51.606;9.988;2023-08-24T09:56:35;7.20;;;5.30;;
57113;SDS011;42994;51.606;9.988;2023-08-24T09:59:05;5.82;;;4.78;;
57113;SDS011;42994;51.606;9.988;2023-08-24T10:01:38;5.43;;;4.07;;
57113;SDS011;42994;51.606;9.988;2023-08-24T10:04:06;12.32;;;7.28;;
57113;SDS011;42994;51.606;9.988;2023-08-24T10:06:36;10.45;;;7.68;;
57113;SDS011;42994;51.606;9.988;2023-08-24T10:09:06;11.30;;;6.18;;
57113;SDS011;42994;51.606;9.988;2023-08-24T10:11:36;5.82;;;4.65;;
57113;SDS011;42994;51.606;9.988;2023-08-24T10:14:10;7.15;;;4.25;;
57113;SDS011;42994;51.606;9.988;2023-08-24T10:16:41;6.82;;;3.78;;
57113;SDS011;42994;51.606;9.988;2023-08-24T10:19:10;5.15;;;3.70;;
57113;SDS011;42994;51.606;9.988;2023-08-24T10:21:39;6.03;;;4.05;;
57113;SDS011;42994;51.606;9.988;2023-08-24T10:24:07;4.28;;;3.90;;
57113;SDS011;42994;51.606;9.988;2023-08-24T10:26:34;6.93;;;4.13;;
57113;SDS011;42994;51.606;9.988;2023-08-24T10:29:03;6.50;;;4.55;;
57113;SDS011;42994;51.606;9.988;2023-08-24T10:31:31;5.03;;;4.32;;
57113;SDS011;42994;51.606;9.988;2023-08-24T10:33:59;7.80;;;3.58;;
57113;SDS011;42994;51.606;9.988;2023-08-24T10:36:27;9.85;;;3.83;;
57113;SDS011;42994;51.606;9.988;2023-08-24T10:38:56;7.13;;;3.70;;
57113;SDS011;42994;51.606;9.988;2023-08-24T10:41:25;4.88;;;3.80;;
57113;SDS011;42994;51.606;9.988;2023-08-24T10:43:53;4.30;;;3.30;;
57113;SDS011;42994;51.606;9.988;2023-08-24T10:46:34;6.85;;;3.50;;
57113;SDS011;42994;51.606;9.988;2023-08-24T10:49:03;4.32;;;3.00;;
57113;SDS011;42994;51.606;9.988;2023-08-24T10:51:30;7.75;;;3.97;;
57113;SDS011;42994;51.606;9.988;2023-08-24T10:53:58;4.25;;;3.60;;
57113;SDS011;42994;51.606;9.988;2023-08-24T10:56:34;6.70;;;3.22;;
57113;SDS011;42994;51.606;9.988;2023-08-24T10:59:14;7.93;;;3.55;;
57113;SDS011;42994;51.606;9.988;2023-08-24T11:01:42;4.13;;;3.10;;
57113;SDS011;42994;51.606;9.988;2023-08-24T11:04:10;3.97;;;3.25;;
57113;SDS011;42994;51.606;9.988;2023-08-24T11:06:50;5.20;;;3.13;;
57113;SDS011;42994;51.606;9.988;2023-08-24T11:11:56;8.60;;;3.85;;
57113;SDS011;42994;51.606;9.988;2023-08-24T11:14:24;4.05;;;3.25;;
57113;SDS011;42994;51.606;9.988;2023-08-24T11:16:52;6.88;;;3.53;;
57113;SDS011;42994;51.606;9.988;2023-08-24T11:19:19;4.82;;;3.13;;
57113;SDS011;42994;51.606;9.988;2023-08-24T11:21:45;4.68;;;3.22;;
57113;SDS011;42994;51.606;9.988;2023-08-24T11:24:13;9.77;;;3.50;;
57113;SDS011;42994;51.606;9.988;2023-08-24T11:26:41;5.53;;;3.55;;
57113;SDS011;42994;51.606;9.988;2023-08-24T11:29:08;7.05;;;3.60;;
57113;SDS011;42994;51.606;9.988;2023-08-24T11:31:35;4.57;;;3.13;;
57113;SDS011;42994;51.606;9.988;2023-08-24T11:34:02;9.73;;;3.20;;
57113;SDS011;42994;51.606;9.988;2023-08-24T11:36:29;5.47;;;3.38;;
57113;SDS011;42994;51.606;9.988;2023-08-24T11:38:57;3.80;;;3.13;;
57113;SDS011;42994;51.606;9.988;2023-08-24T11:41:24;4.93;;;2.97;;
57113;SDS011;42994;51.606;9.988;2023-08-24T11:43:59;7.13;;;4.60;;
57113;SDS011;42994;51.606;9.988;2023-08-24T11:46:28;6.60;;;3.33;;
57113;SDS011;42994;51.606;9.988;2023-08-24T11:48:56;4.90;;;3.30;;
57113;SDS011;42994;51.606;9.988;2023-08-24T11:51:23;4.15;;;2.75;;
57113;SDS011;42994;51.606;9.988;2023-08-24T11:53:50;10.80;;;3.00;;
57113;SDS011;42994;51.606;9.988;2023-08-24T11:56:18;9.10;;;4.05;;
57113;SDS011;42994;51.606;9.988;2023-08-24T11:58:47;3.92;;;3.53;;
57113;SDS011;42994;51.606;9.988;2023-08-24T12:01:16;11.95;;;4.13;;
57113;SDS011;42994;51.606;9.988;2023-08-24T12:03:44;7.93;;;4.40;;
57113;SDS011;42994;51.606;9.988;2023-08-24T12:06:11;10.63;;;4.05;;
57113;SDS011;42994;51.606;9.988;2023-08-24T12:08:39;4.57;;;4.05;;
57113;SDS011;42994;51.606;9.988;2023-08-24T12:11:10;8.30;;;3.58;;
57113;SDS011;42994;51.606;9.988;2023-08-24T12:13:38;7.68;;;3.67;;
57113;SDS011;42994;51.606;9.988;2023-08-24T12:16:09;4.38;;;3.60;;
57113;SDS011;42994;51.606;9.988;2023-08-24T12:18:46;11.73;;;3.13;;
57113;SDS011;42994;51.606;9.988;2023-08-24T12:21:14;9.48;;;3.50;;
57113;SDS011;42994;51.606;9.988;2023-08-24T12:23:41;6.15;;;3.22;;
57113;SDS011;42994;51.606;9.988;2023-08-24T12:26:08;4.90;;;3.45;;
57113;SDS011;42994;51.606;9.988;2023-08-24T12:28:34;6.05;;;3.50;;
57113;SDS011;42994;51.606;9.988;2023-08-24T12:31:01;6.20;;;3.30;;
57113;SDS011;42994;51.606;9.988;2023-08-24T12:33:29;8.48;;;3.25;;
57113;SDS011;42994;51.606;9.988;2023-08-24T12:35:58;5.57;;;3.42;;
57113;SDS011;42994;51.606;9.988;2023-08-24T12:38:25;4.18;;;3.00;;
57113;SDS011;42994;51.606;9.988;2023-08-24T12:40:53;15.35;;;3.67;;
57113;SDS011;42994;51.606;9.988;2023-08-24T12:43:20;5.70;;;3.13;;
57113;SDS011;42994;51.606;9.988;2023-08-24T12:45:46;3.92;;;2.90;;
57113;SDS011;42994;51.606;9.988;2023-08-24T12:48:14;6.72;;;3.65;;
57113;SDS011;42994;51.606;9.988;2023-08-24T12:50:40;6.80;;;3.42;;
57113;SDS011;42994;51.606;9.988;2023-08-24T12:53:08;4.82;;;2.95;;
57113;SDS011;42994;51.606;9.988;2023-08-24T12:55:36;5.28;;;2.92;;
57113;SDS011;42994;51.606;9.988;2023-08-24T12:58:05;4.70;;;2.97;;
57113;SDS011;42994;51.606;9.988;2023-08-24T13:00:32;9.43;;;3.50;;
57113;SDS011;42994;51.606;9.988;2023-08-24T13:02:58;5.38;;;2.70;;
57113;SDS011;42994;51.606;9.988;2023-08-24T13:05:25;6.38;;;2.80;;
57113;SDS011;42994;51.606;9.988;2023-08-24T13:07:51;5.13;;;2.40;;
57113;SDS011;42994;51.606;9.988;2023-08-24T13:10:19;5.30;;;3.30;;
57113;SDS011;42994;51.606;9.988;2023-08-24T13:12:46;4.05;;;3.05;;
57113;SDS011;42994;51.606;9.988;2023-08-24T13:15:13;4.63;;;3.15;;
57113;SDS011;42994;51.606;9.988;2023-08-24T13:17:40;3.13;;;2.60;;
57113;SDS011;42994;51.606;9.988;2023-08-24T13:20:07;4.97;;;3.35;;
57113;SDS011;42994;51.606;9.988;2023-08-24T13:22:34;3.30;;;2.75;;
57113;SDS011;42994;51.606;9.988;2023-08-24T13:25:00;5.57;;;3.05;;
57113;SDS011;42994;51.606;9.988;2023-08-24T13:27:29;6.00;;;3.00;;
57113;SDS011;42994;51.606;9.988;2023-08-24T13:29:56;9.25;;;3.30;;
57113;SDS011;42994;51.606;9.988;2023-08-24T13:32:25;6.80;;;3.75;;
57113;SDS011;42994;51.606;9.988;2023-08-24T13:34:52;7.60;;;3.35;;
57113;SDS011;42994;51.606;9.988;2023-08-24T13:37:18;5.75;;;3.17;;
57113;SDS011;42994;51.606;9.988;2023-08-24T13:39:45;8.73;;;3.38;;
57113;SDS011;42994;51.606;9.988;2023-08-24T13:42:12;6.00;;;2.97;;
57113;SDS011;42994;51.606;9.988;2023-08-24T13:44:40;4.75;;;2.92;;
57113;SDS011;42994;51.606;9.988;2023-08-24T13:47:07;6.20;;;3.03;;
57113;SDS011;42994;51.606;9.988;2023-08-24T13:49:33;5.93;;;2.55;;
57113;SDS011;42994;51.606;9.988;2023-08-24T13:52:00;3.08;;;2.67;;
57113;SDS011;42994;51.606;9.988;2023-08-24T13:54:26;5.35;;;2.83;;
57113;SDS011;42994;51.606;9.988;2023-08-24T13:56:53;5.00;;;3.03;;
57113;SDS011;42994;51.606;9.988;2023-08-24T13:59:20;5.65;;;2.92;;
57113;SDS011;42994;51.606;9.988;2023-08-24T14:01:48;5.47;;;2.53;;
57113;SDS011;42994;51.606;9.988;2023-08-24T14:04:15;8.00;;;2.58;;
57113;SDS011;42994;51.606;9.988;2023-08-24T14:06:41;4.75;;;2.75;;
57113;SDS011;42994;51.606;9.988;2023-08-24T14:09:08;8.55;;;3.55;;
57113;SDS011;42994;51.606;9.988;2023-08-24T14:11:35;6.25;;;2.83;;
57113;SDS011;42994;51.606;9.988;2023-08-24T14:14:01;4.15;;;2.47;;
57113;SDS011;42994;51.606;9.988;2023-08-24T14:16:28;6.22;;;2.30;;
57113;SDS011;42994;51.606;9.988;2023-08-24T14:18:56;6.32;;;3.38;;
57113;SDS011;42994;51.606;9.988;2023-08-24T14:21:22;9.63;;;3.85;;
57113;SDS011;42994;51.606;9.988;2023-08-24T14:23:49;3.22;;;2.70;;
57113;SDS011;42994;51.606;9.988;2023-08-24T14:26:16;6.65;;;2.50;;
57113;SDS011;42994;51.606;9.988;2023-08-24T14:28:47;3.30;;;2.50;;
57113;SDS011;42994;51.606;9.988;2023-08-24T14:31:14;5.50;;;2.53;;
57113;SDS011;42994;51.606;9.988;2023-08-24T14:33:41;3.65;;;2.70;;
57113;SDS011;42994;51.606;9.988;2023-08-24T14:36:09;7.85;;;3.15;;
57113;SDS011;42994;51.606;9.988;2023-08-24T14:38:37;6.05;;;2.42;;
57113;SDS011;42994;51.606;9.988;2023-08-24T14:41:04;10.73;;;2.80;;
57113;SDS011;42994;51.606;9.988;2023-08-24T14:43:31;3.88;;;2.33;;
57113;SDS011;42994;51.606;9.988;2023-08-24T14:45:57;4.45;;;2.55;;
57113;SDS011;42994;51.606;9.988;2023-08-24T14:48:24;2.47;;;2.10;;